createdAt,value
2018-02-11T00:01:26.464Z,27.07
2018-02-11T00:03:57.294Z,26.43
2018-02-11T00:06:28.277Z,27.07
2018-02-11T00:08:59.157Z,25.62
2018-02-11T00:11:31.033Z,25.87
2018-02-11T00:14:01.906Z,26.58
2018-02-11T00:16:32.905Z,26.23
2018-02-11T00:19:03.733Z,25.55
2018-02-11T00:21:34.625Z,27.90
2018-02-11T00:24:05.528Z,28.17
2018-02-11T00:26:36.433Z,27.77
2018-02-11T00:29:07.245Z,27.77
2018-02-11T00:31:38.172Z,24.50
2018-02-11T00:34:09.047Z,26.43
2018-02-11T00:36:45.937Z,31.00
2018-02-11T00:39:16.780Z,28.65
2018-02-11T00:41:47.709Z,28.80
2018-02-11T00:44:18.599Z,28.67
2018-02-11T00:46:49.796Z,29.60
2018-02-11T00:49:20.788Z,30.35
2018-02-11T00:51:52.369Z,29.20
2018-02-11T00:54:23.429Z,26.50
2018-02-11T00:56:54.388Z,28.55
2018-02-11T00:59:25.462Z,27.23
2018-02-11T01:01:56.472Z,26.90
2018-02-11T01:04:27.330Z,25.67
2018-02-11T01:06:58.238Z,26.57
2018-02-11T01:09:29.069Z,28.53
2018-02-11T01:11:59.999Z,27.13
2018-02-11T01:14:30.896Z,28.10
2018-02-11T01:17:01.793Z,26.80
2018-02-11T01:19:32.693Z,27.30
2018-02-11T01:22:03.643Z,26.23
2018-02-11T01:24:34.456Z,27.67
2018-02-11T01:27:05.344Z,25.60
2018-02-11T01:29:36.213Z,27.07
2018-02-11T01:32:07.054Z,26.17
2018-02-11T01:34:37.909Z,28.53
2018-02-11T01:37:08.729Z,28.43
2018-02-11T01:39:39.589Z,25.50
2018-02-11T01:42:10.437Z,26.93
2018-02-11T01:44:41.256Z,24.90
2018-02-11T01:47:12.413Z,26.37
2018-02-11T01:49:43.282Z,28.05
2018-02-11T01:52:14.142Z,26.27
2018-02-11T01:54:44.988Z,25.23
2018-02-11T01:57:15.877Z,25.17
2018-02-11T01:59:46.722Z,24.57
2018-02-11T02:02:17.558Z,25.70
2018-02-11T02:04:48.415Z,28.10
2018-02-11T02:07:19.233Z,23.60
2018-02-11T02:09:50.150Z,22.97
2018-02-11T02:12:20.950Z,25.53
2018-02-11T02:14:51.825Z,23.70
2018-02-11T02:17:22.685Z,24.83
2018-02-11T02:19:53.516Z,22.37
2018-02-11T02:22:24.341Z,24.57
2018-02-11T02:24:55.205Z,25.80
2018-02-11T02:27:26.106Z,23.70
2018-02-11T02:29:58.758Z,24.97
2018-02-11T02:32:29.585Z,27.87
2018-02-11T02:35:00.441Z,25.73
2018-02-11T02:37:31.250Z,21.87
2018-02-11T02:40:02.241Z,26.87
2018-02-11T02:42:33.105Z,24.27
2018-02-11T02:45:03.948Z,26.60
2018-02-11T02:47:34.796Z,24.00
2018-02-11T02:50:05.723Z,25.63
2018-02-11T02:52:36.577Z,25.63
2018-02-11T02:55:07.417Z,23.43
2018-02-11T02:57:38.237Z,27.33
2018-02-11T03:00:09.104Z,23.27
2018-02-11T03:02:39.898Z,24.50
2018-02-11T03:05:10.837Z,25.97
2018-02-11T03:07:41.623Z,26.00
2018-02-11T03:10:12.543Z,25.10
2018-02-11T03:12:43.405Z,24.10
2018-02-11T03:15:14.260Z,26.97
2018-02-11T03:17:45.258Z,27.97
2018-02-11T03:20:16.161Z,30.58
2018-02-11T03:22:47.069Z,25.20
2018-02-11T03:25:17.888Z,25.10
2018-02-11T03:27:48.742Z,28.30
2018-02-11T03:30:19.761Z,27.07
2018-02-11T03:32:50.606Z,28.45
2018-02-11T03:35:21.454Z,29.07
2018-02-11T03:37:52.322Z,29.07
2018-02-11T03:40:23.189Z,28.67
2018-02-11T03:42:54.031Z,31.63
2018-02-11T03:45:24.869Z,27.20
2018-02-11T03:47:55.709Z,28.80
2018-02-11T03:50:26.545Z,31.37
2018-02-11T03:52:57.429Z,29.87
2018-02-11T03:55:28.265Z,31.07
2018-02-11T03:57:59.115Z,26.63
2018-02-11T04:00:29.948Z,27.93
2018-02-11T04:03:00.785Z,27.87
2018-02-11T04:05:31.704Z,26.77
2018-02-11T04:08:02.560Z,29.93
2018-02-11T04:10:33.432Z,25.50
2018-02-11T04:13:04.336Z,26.03
2018-02-11T04:15:35.182Z,28.07
2018-02-11T04:18:06.014Z,26.40
2018-02-11T04:20:36.854Z,26.20
2018-02-11T04:23:07.686Z,24.90
2018-02-11T04:25:38.527Z,25.60
2018-02-11T04:28:09.394Z,26.87
2018-02-11T04:30:40.200Z,24.90
2018-02-11T04:33:11.144Z,28.53
2018-02-11T04:35:41.953Z,24.70
2018-02-11T04:38:12.808Z,24.20
2018-02-11T04:40:43.707Z,25.10
2018-02-11T04:43:14.550Z,23.83
2018-02-11T04:45:45.359Z,25.53
2018-02-11T04:48:16.230Z,22.87
2018-02-11T04:50:47.092Z,23.63
2018-02-11T04:53:17.993Z,23.50
2018-02-11T04:55:48.806Z,24.27
2018-02-11T04:58:19.641Z,23.47
2018-02-11T05:00:50.485Z,23.73
2018-02-11T05:03:21.402Z,21.50
2018-02-11T05:05:52.199Z,22.90
2018-02-11T05:08:23.079Z,21.97
2018-02-11T05:10:53.895Z,23.13
2018-02-11T05:13:24.747Z,23.73
2018-02-11T05:15:55.586Z,20.27
2018-02-11T05:18:26.465Z,22.30
2018-02-11T05:20:57.303Z,23.17
2018-02-11T05:23:28.346Z,23.13
2018-02-11T05:25:59.179Z,21.60
2018-02-11T05:28:30.038Z,22.37
2018-02-11T05:31:00.853Z,21.80
2018-02-11T05:33:31.735Z,22.23
2018-02-11T05:36:02.556Z,21.23
2018-02-11T05:38:33.477Z,20.47
2018-02-11T05:41:04.312Z,20.93
2018-02-11T05:43:35.137Z,19.27
2018-02-11T05:46:06.005Z,21.27
2018-02-11T05:48:36.846Z,20.33
2018-02-11T05:51:07.677Z,19.77
2018-02-11T05:53:38.516Z,20.03
2018-02-11T05:56:09.366Z,17.77
2018-02-11T05:58:40.222Z,20.07
2018-02-11T06:01:11.065Z,19.10
2018-02-11T06:03:41.976Z,17.67
2018-02-11T06:06:12.809Z,17.17
2018-02-11T06:08:43.726Z,17.37
2018-02-11T06:11:14.556Z,18.37
2018-02-11T06:13:45.453Z,17.17
2018-02-11T06:16:16.337Z,16.07
2018-02-11T06:18:47.189Z,19.03
2018-02-11T06:21:18.041Z,18.20
2018-02-11T06:23:48.903Z,16.37
2018-02-11T06:26:19.808Z,17.20
2018-02-11T06:28:50.632Z,17.13
2018-02-11T06:31:21.547Z,16.43
2018-02-11T06:33:52.384Z,17.70
2018-02-11T06:36:23.288Z,16.23
2018-02-11T06:38:54.217Z,15.00
2018-02-11T06:41:25.118Z,17.70
2018-02-11T06:43:55.969Z,17.57
2018-02-11T06:46:26.813Z,16.57
2018-02-11T06:48:57.743Z,16.90
2018-02-11T06:51:28.611Z,16.87
2018-02-11T06:53:59.551Z,15.23
2018-02-11T06:56:30.438Z,15.13
2018-02-11T06:59:01.334Z,15.17
2018-02-11T07:01:32.217Z,15.80
2018-02-11T07:04:03.130Z,16.83
2018-02-11T07:06:33.991Z,15.37
2018-02-11T07:09:04.846Z,14.00
2018-02-11T07:11:35.758Z,15.07
2018-02-11T07:14:06.620Z,15.17
2018-02-11T07:16:37.530Z,14.57
2018-02-11T07:19:08.532Z,15.13
2018-02-11T07:21:39.335Z,13.80
2018-02-11T07:24:10.271Z,14.53
2018-02-11T07:26:41.090Z,14.40
2018-02-11T07:29:11.958Z,15.00
2018-02-11T07:31:42.829Z,14.83
2018-02-11T07:34:13.678Z,15.40
2018-02-11T07:36:44.553Z,14.97
2018-02-11T07:39:15.459Z,15.53
2018-02-11T07:41:46.303Z,14.60
2018-02-11T07:44:17.197Z,13.27
2018-02-11T07:46:48.119Z,13.60
2018-02-11T07:49:19.052Z,13.63
2018-02-11T07:51:49.923Z,14.27
2018-02-11T07:54:20.743Z,14.40
2018-02-11T07:56:51.570Z,14.43
2018-02-11T07:59:22.492Z,14.50
2018-02-11T08:01:53.337Z,13.90
2018-02-11T08:04:24.236Z,12.87
2018-02-11T08:06:55.045Z,11.50
2018-02-11T08:09:25.944Z,11.67
2018-02-11T08:11:56.782Z,12.30
2018-02-11T08:14:27.744Z,12.70
2018-02-11T08:16:58.627Z,12.23
2018-02-11T08:19:29.500Z,12.87
2018-02-11T08:22:00.350Z,10.40
2018-02-11T08:24:31.230Z,10.57
2018-02-11T08:27:02.123Z,11.50
2018-02-11T08:29:32.997Z,10.10
2018-02-11T08:32:03.868Z,9.20
2018-02-11T08:34:34.755Z,9.67
2018-02-11T08:37:05.614Z,9.53
2018-02-11T08:39:36.459Z,8.57
2018-02-11T08:42:07.317Z,8.90
2018-02-11T08:44:38.204Z,9.90
2018-02-11T08:47:09.026Z,8.80
2018-02-11T08:49:39.843Z,9.33
2018-02-11T08:52:10.749Z,8.77
2018-02-11T08:54:41.589Z,8.50
2018-02-11T08:57:12.408Z,9.23
2018-02-11T08:59:43.271Z,8.40
2018-02-11T09:02:14.112Z,9.20
2018-02-11T09:04:45.016Z,8.33
2018-02-11T09:07:15.853Z,9.40
2018-02-11T09:09:46.695Z,9.70
2018-02-11T09:12:17.544Z,9.30
2018-02-11T09:14:48.393Z,8.27
2018-02-11T09:17:19.224Z,8.73
2018-02-11T09:19:50.157Z,8.03
2018-02-11T09:22:21.087Z,7.90
2018-02-11T09:24:51.898Z,7.73
2018-02-11T09:27:22.749Z,9.07
2018-02-11T09:29:53.545Z,7.97
2018-02-11T09:32:24.382Z,8.33
2018-02-11T09:34:55.265Z,8.20
2018-02-11T09:37:26.074Z,7.97
2018-02-11T09:39:56.955Z,7.87
2018-02-11T09:42:27.818Z,7.10
2018-02-11T09:44:58.660Z,7.70
2018-02-11T09:47:30.545Z,7.40
2018-02-11T09:50:01.417Z,7.40
2018-02-11T09:52:33.352Z,7.50
2018-02-11T09:55:05.239Z,6.82
2018-02-11T09:57:36.089Z,7.50
2018-02-11T10:00:06.919Z,7.50
2018-02-11T10:02:37.755Z,7.97
2018-02-11T10:05:08.591Z,6.97
2018-02-11T10:07:40.513Z,7.10
2018-02-11T10:10:11.344Z,7.50
2018-02-11T10:12:43.164Z,8.70
2018-02-11T10:15:14.296Z,7.93
2018-02-11T10:17:45.147Z,8.10
2018-02-11T10:20:17.143Z,6.93
2018-02-11T10:22:48.025Z,7.28
2018-02-11T10:25:19.605Z,6.40
2018-02-11T10:27:50.436Z,7.80
2018-02-11T10:30:21.283Z,7.97
2018-02-11T10:32:52.144Z,7.70
2018-02-11T10:35:22.968Z,7.93
2018-02-11T10:37:53.789Z,7.70
2018-02-11T10:40:24.705Z,8.63
2018-02-11T10:42:55.550Z,7.77
2018-02-11T10:45:26.393Z,8.70
2018-02-11T10:47:57.194Z,8.30
2018-02-11T10:50:28.101Z,8.40
2018-02-11T10:52:58.945Z,9.43
2018-02-11T10:55:29.790Z,8.90
2018-02-11T10:58:00.586Z,8.20
2018-02-11T11:00:31.508Z,8.33
2018-02-11T11:03:02.367Z,8.20
2018-02-11T11:05:33.331Z,9.10
2018-02-11T11:08:05.150Z,8.40
2018-02-11T11:10:35.976Z,8.10
2018-02-11T11:13:06.807Z,8.37
2018-02-11T11:15:37.705Z,8.97
2018-02-11T11:18:08.495Z,8.47
2018-02-11T11:20:39.369Z,7.70
2018-02-11T11:23:10.190Z,8.47
2018-02-11T11:25:41.049Z,9.27
2018-02-11T11:28:11.882Z,9.40
2018-02-11T11:30:42.721Z,8.70
2018-02-11T11:33:13.649Z,9.17
2018-02-11T11:35:44.625Z,9.53
2018-02-11T11:38:15.484Z,9.03
2018-02-11T11:40:46.401Z,9.60
2018-02-11T11:43:17.216Z,9.10
2018-02-11T11:45:48.089Z,10.40
2018-02-11T11:48:18.929Z,9.00
2018-02-11T11:50:49.745Z,9.80
2018-02-11T11:53:20.562Z,9.47
2018-02-11T11:55:51.424Z,9.60
2018-02-11T11:58:22.277Z,9.27
2018-02-11T12:00:53.176Z,10.00
2018-02-11T12:03:24.032Z,10.00
2018-02-11T12:05:54.870Z,9.43
2018-02-11T12:08:25.785Z,9.33
2018-02-11T12:10:56.684Z,9.80
2018-02-11T12:13:27.502Z,10.10
2018-02-11T12:15:58.342Z,10.17
2018-02-11T12:18:29.192Z,9.60
2018-02-11T12:21:00.091Z,10.47
2018-02-11T12:23:30.957Z,11.87
2018-02-11T12:26:01.818Z,10.37
2018-02-11T12:28:32.719Z,9.50
2018-02-11T12:31:03.652Z,9.37
2018-02-11T12:33:34.444Z,10.63
2018-02-11T12:36:05.316Z,9.90
2018-02-11T12:38:37.301Z,9.83
2018-02-11T12:41:08.192Z,9.98
2018-02-11T12:43:39.084Z,11.07
2018-02-11T12:46:09.948Z,10.10
2018-02-11T12:48:40.849Z,10.20
2018-02-11T12:51:11.725Z,9.10
2018-02-11T12:53:43.407Z,10.20
2018-02-11T12:56:14.405Z,10.73
2018-02-11T12:58:45.262Z,10.15
2018-02-11T13:01:16.210Z,10.17
2018-02-11T13:03:49.150Z,9.43
2018-02-11T13:06:20.037Z,10.73
2018-02-11T13:08:50.881Z,10.27
2018-02-11T13:11:22.455Z,10.70
2018-02-11T13:13:53.389Z,9.73
2018-02-11T13:16:24.351Z,10.00
2018-02-11T13:18:55.174Z,10.80
2018-02-11T13:21:26.090Z,9.73
2018-02-11T13:23:56.938Z,11.27
2018-02-11T13:26:27.844Z,10.83
2018-02-11T13:28:58.715Z,10.67
2018-02-11T13:31:29.553Z,10.23
2018-02-11T13:34:00.420Z,11.00
2018-02-11T13:36:31.307Z,12.50
2018-02-11T13:39:02.192Z,10.90
2018-02-11T13:41:33.070Z,10.80
2018-02-11T13:44:03.919Z,11.60
2018-02-11T13:46:34.785Z,10.93
2018-02-11T13:49:05.625Z,11.43
2018-02-11T13:51:36.574Z,10.90
2018-02-11T13:54:07.423Z,12.50
2018-02-11T13:56:38.327Z,12.67
2018-02-11T13:59:09.172Z,12.13
2018-02-11T14:01:40.087Z,13.10
2018-02-11T14:04:10.907Z,12.60
2018-02-11T14:06:41.840Z,13.33
2018-02-11T14:09:12.725Z,12.87
2018-02-11T14:11:43.589Z,12.03
2018-02-11T14:14:14.535Z,13.83
2018-02-11T14:16:45.370Z,12.70
2018-02-11T14:19:16.227Z,13.33
2018-02-11T14:21:47.067Z,14.77
2018-02-11T14:24:17.916Z,12.87
2018-02-11T14:26:48.724Z,12.97
2018-02-11T14:29:19.513Z,14.50
2018-02-11T14:31:50.429Z,14.70
2018-02-11T14:34:21.262Z,13.33
2018-02-11T14:36:58.762Z,13.77
2018-02-11T14:39:29.640Z,15.50
2018-02-11T14:42:01.979Z,15.30
2018-02-11T14:44:33.081Z,14.02
2018-02-11T14:47:04.112Z,14.10
2018-02-11T14:49:35.465Z,13.80
2018-02-11T14:52:08.144Z,18.15
2018-02-11T14:54:39.048Z,14.75
2018-02-11T14:57:09.903Z,21.87
2018-02-11T14:59:40.906Z,19.40
2018-02-11T15:02:11.701Z,15.20
2018-02-11T15:04:42.552Z,14.13
2018-02-11T15:07:13.404Z,14.70
2018-02-11T15:09:44.177Z,14.60
2018-02-11T15:12:15.096Z,16.23
2018-02-11T15:14:45.852Z,15.60
2018-02-11T15:17:17.055Z,16.53
2018-02-11T15:19:47.916Z,14.07
2018-02-11T15:22:18.761Z,13.60
2018-02-11T15:24:49.801Z,14.87
2018-02-11T15:27:20.572Z,14.40
2018-02-11T15:29:51.356Z,16.20
2018-02-11T15:32:26.221Z,15.53
2018-02-11T15:34:56.984Z,16.27
2018-02-11T15:37:27.755Z,17.03
2018-02-11T15:39:58.536Z,14.03
2018-02-11T15:42:30.460Z,16.90
2018-02-11T15:45:01.291Z,14.68
2018-02-11T15:47:32.341Z,15.20
2018-02-11T15:50:03.180Z,16.40
2018-02-11T15:52:34.020Z,15.03
2018-02-11T15:55:04.783Z,21.10
2018-02-11T15:57:35.545Z,22.70
2018-02-11T16:00:06.469Z,24.57
2018-02-11T16:02:37.656Z,15.53
2018-02-11T16:05:08.420Z,16.42
2018-02-11T16:07:39.264Z,17.33
2018-02-11T16:10:10.124Z,17.73
2018-02-11T16:12:40.915Z,17.40
2018-02-11T16:15:11.724Z,17.13
2018-02-11T16:17:42.505Z,16.80
2018-02-11T16:20:13.378Z,16.37
2018-02-11T16:22:44.184Z,16.17
2018-02-11T16:25:14.945Z,15.73
2018-02-11T16:27:45.789Z,16.00
2018-02-11T16:30:16.592Z,16.57
2018-02-11T16:32:47.453Z,16.43
2018-02-11T16:35:18.208Z,14.90
2018-02-11T16:37:49.001Z,17.67
2018-02-11T16:40:19.761Z,17.90
2018-02-11T16:42:50.585Z,16.63
2018-02-11T16:45:21.361Z,18.00
2018-02-11T16:47:52.154Z,16.97
2018-02-11T16:50:22.911Z,16.00
2018-02-11T16:52:53.700Z,18.90
2018-02-11T16:55:24.491Z,16.33
2018-02-11T16:57:55.292Z,18.93
2018-02-11T17:00:26.092Z,17.37
2018-02-11T17:02:56.995Z,15.27
2018-02-11T17:05:27.816Z,17.90
2018-02-11T17:07:58.529Z,17.50
2018-02-11T17:10:29.297Z,17.50
2018-02-11T17:13:00.105Z,18.13
2018-02-11T17:15:30.868Z,17.60
2018-02-11T17:18:01.644Z,16.17
2018-02-11T17:20:32.414Z,18.17
2018-02-11T17:23:03.222Z,19.30
2018-02-11T17:25:33.980Z,16.53
2018-02-11T17:28:04.784Z,20.07
2018-02-11T17:30:35.519Z,18.10
2018-02-11T17:33:06.317Z,18.67
2018-02-11T17:35:37.063Z,19.00
2018-02-11T17:38:07.900Z,19.40
2018-02-11T17:40:38.660Z,23.50
2018-02-11T17:43:09.432Z,21.47
2018-02-11T17:45:40.198Z,19.57
2018-02-11T17:48:10.999Z,18.40
2018-02-11T17:50:41.775Z,18.50
2018-02-11T17:53:12.604Z,19.97
2018-02-11T17:55:43.400Z,15.90
2018-02-11T17:58:14.236Z,17.37
2018-02-11T18:00:44.997Z,16.90
2018-02-11T18:03:16.857Z,18.90
2018-02-11T18:05:47.601Z,19.35
2018-02-11T18:08:18.809Z,17.90
2018-02-11T18:10:49.220Z,16.77
2018-02-11T18:13:19.995Z,18.00
2018-02-11T18:15:50.756Z,16.93
2018-02-11T18:18:21.536Z,17.10
2018-02-11T18:20:52.292Z,17.90
2018-02-11T18:23:23.032Z,16.30
2018-02-11T18:25:53.794Z,16.87
2018-02-11T18:28:24.535Z,17.40
2018-02-11T18:30:57.381Z,15.93
2018-02-11T18:33:28.123Z,17.92
2018-02-11T18:35:58.924Z,16.10
2018-02-11T18:38:29.652Z,15.87
2018-02-11T18:41:00.422Z,15.30
2018-02-11T18:43:31.240Z,16.73
2018-02-11T18:46:02.022Z,15.83
2018-02-11T18:48:32.788Z,17.27
2018-02-11T18:51:03.559Z,17.90
2018-02-11T18:53:34.328Z,17.70
2018-02-11T18:56:05.124Z,14.90
2018-02-11T18:58:35.985Z,16.07
2018-02-11T19:01:06.797Z,17.60
2018-02-11T19:03:37.555Z,15.43
2018-02-11T19:06:08.329Z,17.10
2018-02-11T19:08:39.146Z,17.00
2018-02-11T19:11:10.034Z,16.63
2018-02-11T19:13:40.849Z,16.83
2018-02-11T19:16:11.670Z,17.07
2018-02-11T19:18:42.472Z,15.87
2018-02-11T19:21:13.383Z,15.63
2018-02-11T19:23:44.217Z,19.27
2018-02-11T19:26:15.045Z,16.77
2018-02-11T19:28:45.988Z,15.47
2018-02-11T19:31:16.788Z,16.50
2018-02-11T19:33:54.263Z,18.03
2018-02-11T19:36:27.106Z,16.83
2018-02-11T19:39:00.028Z,16.10
2018-02-11T19:41:32.012Z,16.50
2018-02-11T19:44:02.828Z,17.87
2018-02-11T19:46:33.619Z,18.00
2018-02-11T19:49:08.613Z,16.70
2018-02-11T19:51:39.812Z,16.65
2018-02-11T19:54:15.370Z,17.23
2018-02-11T19:56:46.394Z,16.10
2018-02-11T19:59:19.169Z,15.77
2018-02-11T20:01:50.196Z,16.60
2018-02-11T20:04:21.385Z,16.95
2018-02-11T20:06:52.472Z,17.70
2018-02-11T20:09:23.576Z,18.75
2018-02-11T20:11:54.678Z,16.12
2018-02-11T20:14:33.044Z,18.48
2018-02-11T20:17:04.816Z,17.90
2018-02-11T20:19:35.840Z,17.60
2018-02-11T20:22:06.652Z,20.42
2018-02-11T20:24:37.448Z,20.40
2018-02-11T20:27:08.216Z,18.40
2018-02-11T20:29:39.006Z,18.20
2018-02-11T20:32:09.992Z,19.60
2018-02-11T20:34:40.848Z,19.37
2018-02-11T20:37:11.765Z,19.27
2018-02-11T20:39:42.576Z,20.00
2018-02-11T20:42:13.420Z,17.40
2018-02-11T20:44:44.293Z,21.77
2018-02-11T20:47:15.440Z,18.17
2018-02-11T20:49:46.391Z,17.12
2018-02-11T20:52:17.294Z,16.90
2018-02-11T20:54:48.108Z,15.70
2018-02-11T20:57:18.884Z,18.00
2018-02-11T20:59:49.721Z,16.37
2018-02-11T21:02:24.209Z,16.93
2018-02-11T21:04:55.024Z,16.90
2018-02-11T21:07:25.825Z,17.87
2018-02-11T21:09:56.632Z,17.90
2018-02-11T21:12:27.494Z,16.20
2018-02-11T21:14:58.399Z,15.80
2018-02-11T21:17:29.253Z,14.40
2018-02-11T21:20:00.092Z,15.10
2018-02-11T21:22:30.937Z,14.07
2018-02-11T21:25:01.685Z,14.23
2018-02-11T21:27:32.670Z,13.23
2018-02-11T21:30:03.416Z,14.73
2018-02-11T21:32:34.158Z,14.37
2018-02-11T21:35:04.989Z,15.03
2018-02-11T21:37:35.777Z,14.43
2018-02-11T21:40:16.760Z,14.40
2018-02-11T21:42:53.467Z,13.10
2018-02-11T21:45:32.960Z,12.98
2018-02-11T21:48:03.841Z,13.40
2018-02-11T21:50:41.469Z,14.10
2018-02-11T21:53:12.260Z,13.70
2018-02-11T21:55:43.032Z,14.30
2018-02-11T21:58:15.963Z,12.50
2018-02-11T22:00:46.667Z,11.12
2018-02-11T22:03:17.475Z,12.70
2018-02-11T22:05:48.269Z,12.90
2018-02-11T22:08:19.067Z,12.27
2018-02-11T22:10:49.878Z,12.07
2018-02-11T22:13:25.672Z,14.10
2018-02-11T22:15:56.707Z,13.05
2018-02-11T22:18:27.682Z,14.68
2018-02-11T22:20:58.986Z,13.62
2018-02-11T22:23:30.481Z,13.77
2018-02-11T22:26:01.335Z,13.80
2018-02-11T22:28:32.930Z,15.27
2018-02-11T22:31:05.488Z,14.65
2018-02-11T22:33:36.998Z,14.50
2018-02-11T22:36:15.457Z,13.57
2018-02-11T22:38:46.435Z,16.05
2018-02-11T22:41:19.331Z,15.05
2018-02-11T22:43:50.216Z,15.65
2018-02-11T22:46:34.039Z,15.40
2018-02-11T22:49:04.960Z,13.60
2018-02-11T22:51:35.828Z,15.50
2018-02-11T22:54:06.609Z,13.73
2018-02-11T22:56:42.280Z,14.80
2018-02-11T22:59:13.049Z,15.18
2018-02-11T23:01:45.949Z,15.23
2018-02-11T23:04:16.851Z,13.35
2018-02-11T23:06:47.834Z,13.70
2018-02-11T23:09:18.664Z,15.13
2018-02-11T23:11:49.496Z,14.30
2018-02-11T23:14:22.497Z,14.60
2018-02-11T23:16:53.457Z,14.27
2018-02-11T23:19:24.288Z,13.87
2018-02-11T23:21:55.200Z,14.80
2018-02-11T23:24:26.140Z,12.90
2018-02-11T23:26:57.004Z,13.67
2018-02-11T23:29:46.988Z,13.43
2018-02-11T23:32:17.785Z,14.55
2018-02-11T23:34:55.111Z,13.90
2018-02-11T23:37:25.900Z,14.38
2018-02-11T23:39:56.679Z,14.43
2018-02-11T23:42:27.675Z,12.37
2018-02-11T23:44:58.475Z,13.00
2018-02-11T23:47:29.388Z,13.27
2018-02-11T23:50:00.172Z,12.47
2018-02-11T23:52:31.265Z,11.03
2018-02-11T23:55:02.160Z,12.98
2018-02-11T23:57:33.005Z,11.40
